sensor_id;sensor_type;location;lat;lon;timestamp;P1;durP1;ratioP1;P2;durP2;ratioP2
3591;SDS011;1810;48.720;9.094;2023-08-24T06:00:31;467.70;;;445.00;;
3591;SDS011;1810;48.720;9.094;2023-08-24T06:03:05;422.27;;;402.25;;
3591;SDS011;1810;48.720;9.094;2023-08-24T06:05:34;459.00;;;437.08;;
3591;SDS011;1810;48.720;9.094;2023-08-24T06:08:05;507.75;;;482.20;;
3591;SDS011;1810;48.720;9.094;2023-08-24T06:10:35;497.63;;;473.20;;
3591;SDS011;1810;48.720;9.094;2023-08-24T06:13:07;508.58;;;483.08;;
3591;SDS011;1810;48.720;9.094;2023-08-24T07:36:40;597.75;;;564.25;;
3591;SDS011;1810;48.720;9.094;2023-08-24T07:39:11;586.03;;;554.35;;
3591;SDS011;1810;48.720;9.094;2023-08-24T07:41:41;566.72;;;535.92;;
3591;SDS011;1810;48.720;9.094;2023-08-24T07:44:16;542.58;;;514.60;;
3591;SDS011;1810;48.720;9.094;2023-08-24T07:46:46;551.88;;;522.85;;
3591;SDS011;1810;48.720;9.094;2023-08-24T07:49:20;539.40;;;511.02;;
3591;SDS011;1810;48.720;9.094;2023-08-24T07:51:53;519.25;;;492.52;;
3591;SDS011;1810;48.720;9.094;2023-08-24T07:54:23;521.47;;;494.65;;
3591;SDS011;1810;48.720;9.094;2023-08-24T07:56:52;558.72;;;529.30;;
3591;SDS011;1810;48.720;9.094;2023-08-24T07:59:21;568.60;;;537.60;;
3591;SDS011;1810;48.720;9.094;2023-08-24T08:01:50;531.53;;;504.15;;
3591;SDS011;1810;48.720;9.094;2023-08-24T08:04:19;556.75;;;527.45;;
3591;SDS011;1810;48.720;9.094;2023-08-24T08:06:48;567.90;;;537.35;;
3591;SDS011;1810;48.720;9.094;2023-08-24T08:09:18;547.78;;;519.30;;
3591;SDS011;1810;48.720;9.094;2023-08-24T08:11:48;531.78;;;504.45;;
3591;SDS011;1810;48.720;9.094;2023-08-24T08:14:17;548.63;;;520.25;;
3591;SDS011;1810;48.720;9.094;2023-08-24T08:16:46;571.38;;;540.40;;
3591;SDS011;1810;48.720;9.094;2023-08-24T08:19:15;552.53;;;523.47;;
3591;SDS011;1810;48.720;9.094;2023-08-24T08:21:45;605.85;;;572.20;;
3591;SDS011;1810;48.720;9.094;2023-08-24T08:24:22;552.33;;;523.53;;
3591;SDS011;1810;48.720;9.094;2023-08-24T08:26:59;592.22;;;559.83;;
3591;SDS011;1810;48.720;9.094;2023-08-24T08:29:30;575.55;;;544.47;;
3591;SDS011;1810;48.720;9.094;2023-08-24T08:32:01;603.03;;;569.75;;
3591;SDS011;1810;48.720;9.094;2023-08-24T08:34:32;611.58;;;577.17;;
3591;SDS011;1810;48.720;9.094;2023-08-24T08:37:12;594.72;;;562.28;;
3591;SDS011;1810;48.720;9.094;2023-08-24T08:39:43;692.33;;;650.35;;
3591;SDS011;1810;48.720;9.094;2023-08-24T08:42:17;593.20;;;560.08;;
3591;SDS011;1810;48.720;9.094;2023-08-24T08:45:09;626.10;;;590.42;;
3591;SDS011;1810;48.720;9.094;2023-08-24T08:47:45;667.72;;;628.08;;
3591;SDS011;1810;48.720;9.094;2023-08-24T08:50:23;690.50;;;648.67;;
3591;SDS011;1810;48.720;9.094;2023-08-24T08:53:11;674.13;;;633.67;;
3591;SDS011;1810;48.720;9.094;2023-08-24T08:56:18;670.17;;;630.92;;
3591;SDS011;1810;48.720;9.094;2023-08-24T08:59:15;672.33;;;632.00;;
3591;SDS011;1810;48.720;9.094;2023-08-24T09:02:04;634.00;;;597.53;;
3591;SDS011;1810;48.720;9.094;2023-08-24T09:05:00;665.05;;;625.30;;
3591;SDS011;1810;48.720;9.094;2023-08-24T09:07:33;622.15;;;586.72;;
3591;SDS011;1810;48.720;9.094;2023-08-24T09:10:12;645.83;;;608.70;;
3591;SDS011;1810;48.720;9.094;2023-08-24T09:12:55;659.15;;;620.13;;
3591;SDS011;1810;48.720;9.094;2023-08-24T09:15:37;688.93;;;646.50;;
3591;SDS011;1810;48.720;9.094;2023-08-24T09:18:17;586.88;;;554.55;;
3591;SDS011;1810;48.720;9.094;2023-08-24T09:21:14;609.85;;;575.67;;
3591;SDS011;1810;48.720;9.094;2023-08-24T11:12:21;652.10;;;613.83;;
3591;SDS011;1810;48.720;9.094;2023-08-24T11:14:50;635.90;;;599.78;;
3591;SDS011;1810;48.720;9.094;2023-08-24T11:17:21;642.95;;;605.58;;
3591;SDS011;1810;48.720;9.094;2023-08-24T11:19:50;635.88;;;599.15;;
3591;SDS011;1810;48.720;9.094;2023-08-24T11:22:20;642.78;;;605.65;;
3591;SDS011;1810;48.720;9.094;2023-08-24T11:24:49;642.20;;;605.33;;
3591;SDS011;1810;48.720;9.094;2023-08-24T11:27:17;658.70;;;620.58;;
3591;SDS011;1810;48.720;9.094;2023-08-24T11:29:57;664.47;;;625.38;;
3591;SDS011;1810;48.720;9.094;2023-08-24T11:32:27;637.13;;;600.22;;
3591;SDS011;1810;48.720;9.094;2023-08-24T11:34:55;640.88;;;603.88;;
3591;SDS011;1810;48.720;9.094;2023-08-24T11:37:25;664.40;;;625.33;;
3591;SDS011;1810;48.720;9.094;2023-08-24T11:39:53;660.65;;;621.05;;
3591;SDS011;1810;48.720;9.094;2023-08-24T11:42:23;702.53;;;659.10;;
3591;SDS011;1810;48.720;9.094;2023-08-24T11:44:52;661.58;;;622.72;;
3591;SDS011;1810;48.720;9.094;2023-08-24T11:47:20;683.22;;;642.35;;
3591;SDS011;1810;48.720;9.094;2023-08-24T11:49:50;650.92;;;612.47;;
3591;SDS011;1810;48.720;9.094;2023-08-24T11:52:18;652.35;;;614.38;;
3591;SDS011;1810;48.720;9.094;2023-08-24T11:54:47;639.08;;;602.45;;
3591;SDS011;1810;48.720;9.094;2023-08-24T11:57:18;653.08;;;615.15;;
3591;SDS011;1810;48.720;9.094;2023-08-24T11:59:47;632.88;;;597.05;;
3591;SDS011;1810;48.720;9.094;2023-08-24T12:02:16;674.33;;;633.85;;
3591;SDS011;1810;48.720;9.094;2023-08-24T12:04:45;627.63;;;591.72;;
3591;SDS011;1810;48.720;9.094;2023-08-24T12:07:17;625.38;;;590.13;;
3591;SDS011;1810;48.720;9.094;2023-08-24T12:09:47;598.17;;;565.35;;
3591;SDS011;1810;48.720;9.094;2023-08-24T12:12:19;601.70;;;568.40;;
3591;SDS011;1810;48.720;9.094;2023-08-24T12:14:51;602.85;;;569.42;;
3591;SDS011;1810;48.720;9.094;2023-08-24T12:17:19;626.53;;;590.63;;
3591;SDS011;1810;48.720;9.094;2023-08-24T12:19:56;610.60;;;576.95;;
3591;SDS011;1810;48.720;9.094;2023-08-24T12:22:26;582.33;;;550.80;;
3591;SDS011;1810;48.720;9.094;2023-08-24T12:24:55;572.47;;;542.40;;
3591;SDS011;1810;48.720;9.094;2023-08-24T12:27:25;556.63;;;527.42;;
3591;SDS011;1810;48.720;9.094;2023-08-24T12:29:59;558.47;;;528.85;;
3591;SDS011;1810;48.720;9.094;2023-08-24T12:32:41;520.05;;;493.13;;
3591;SDS011;1810;48.720;9.094;2023-08-24T12:35:10;530.67;;;502.92;;
3591;SDS011;1810;48.720;9.094;2023-08-24T12:37:39;504.15;;;478.58;;
3591;SDS011;1810;48.720;9.094;2023-08-24T12:40:07;558.47;;;527.10;;
3591;SDS011;1810;48.720;9.094;2023-08-24T12:42:37;490.55;;;466.02;;
3591;SDS011;1810;48.720;9.094;2023-08-24T12:45:07;477.55;;;453.90;;
3591;SDS011;1810;48.720;9.094;2023-08-24T12:47:36;487.10;;;462.80;;
3591;SDS011;1810;48.720;9.094;2023-08-24T12:50:05;490.73;;;466.10;;
3591;SDS011;1810;48.720;9.094;2023-08-24T12:52:35;481.77;;;457.92;;
3591;SDS011;1810;48.720;9.094;2023-08-24T12:55:04;506.05;;;480.15;;
3591;SDS011;1810;48.720;9.094;2023-08-24T12:57:33;480.55;;;456.55;;
3591;SDS011;1810;48.720;9.094;2023-08-24T13:00:01;474.48;;;450.60;;
3591;SDS011;1810;48.720;9.094;2023-08-24T13:02:31;494.67;;;469.88;;
3591;SDS011;1810;48.720;9.094;2023-08-24T13:05:05;483.60;;;459.63;;
3591;SDS011;1810;48.720;9.094;2023-08-24T13:07:34;505.23;;;479.60;;
3591;SDS011;1810;48.720;9.094;2023-08-24T13:10:04;501.13;;;475.50;;
3591;SDS011;1810;48.720;9.094;2023-08-24T13:12:34;487.33;;;463.05;;
3591;SDS011;1810;48.720;9.094;2023-08-24T13:15:03;499.45;;;474.23;;
3591;SDS011;1810;48.720;9.094;2023-08-24T13:17:33;493.65;;;468.63;;
3591;SDS011;1810;48.720;9.094;2023-08-24T13:20:02;490.13;;;465.25;;
3591;SDS011;1810;48.720;9.094;2023-08-24T13:22:32;542.72;;;514.10;;
3591;SDS011;1810;48.720;9.094;2023-08-24T13:25:01;507.88;;;481.83;;
3591;SDS011;1810;48.720;9.094;2023-08-24T13:27:29;522.13;;;495.27;;
3591;SDS011;1810;48.720;9.094;2023-08-24T13:29:59;492.50;;;467.65;;
3591;SDS011;1810;48.720;9.094;2023-08-24T13:32:28;493.88;;;468.83;;
3591;SDS011;1810;48.720;9.094;2023-08-24T13:34:58;494.98;;;470.23;;
3591;SDS011;1810;48.720;9.094;2023-08-24T13:37:28;502.98;;;477.38;;
3591;SDS011;1810;48.720;9.094;2023-08-24T13:39:57;474.73;;;451.23;;
3591;SDS011;1810;48.720;9.094;2023-08-24T13:42:26;487.38;;;462.58;;
3591;SDS011;1810;48.720;9.094;2023-08-24T13:44:54;467.73;;;444.48;;
3591;SDS011;1810;48.720;9.094;2023-08-24T13:47:23;465.00;;;442.17;;
3591;SDS011;1810;48.720;9.094;2023-08-24T13:49:51;687.92;;;645.75;;
3591;SDS011;1810;48.720;9.094;2023-08-24T13:52:21;702.53;;;659.30;;
3591;SDS011;1810;48.720;9.094;2023-08-24T13:54:50;691.88;;;649.30;;
3591;SDS011;1810;48.720;9.094;2023-08-24T13:57:32;705.85;;;661.78;;
3591;SDS011;1810;48.720;9.094;2023-08-24T14:00:00;706.72;;;662.83;;
3591;SDS011;1810;48.720;9.094;2023-08-24T14:02:30;764.13;;;714.25;;
3591;SDS011;1810;48.720;9.094;2023-08-24T14:04:59;706.45;;;662.22;;
3591;SDS011;1810;48.720;9.094;2023-08-24T14:07:29;734.28;;;687.50;;
3591;SDS011;1810;48.720;9.094;2023-08-24T14:09:59;723.90;;;677.65;;
3591;SDS011;1810;48.720;9.094;2023-08-24T14:12:32;747.35;;;699.08;;
3591;SDS011;1810;48.720;9.094;2023-08-24T14:15:00;715.22;;;670.42;;
3591;SDS011;1810;48.720;9.094;2023-08-24T14:17:29;711.38;;;666.55;;
3591;SDS011;1810;48.720;9.094;2023-08-24T14:19:58;697.72;;;653.90;;
3591;SDS011;1810;48.720;9.094;2023-08-24T14:22:26;701.50;;;657.70;;
3591;SDS011;1810;48.720;9.094;2023-08-24T14:24:56;736.97;;;690.22;;
3591;SDS011;1810;48.720;9.094;2023-08-24T14:27:24;703.28;;;659.72;;
3591;SDS011;1810;48.720;9.094;2023-08-24T14:29:53;709.10;;;664.47;;
3591;SDS011;1810;48.720;9.094;2023-08-24T14:32:22;700.90;;;656.83;;
3591;SDS011;1810;48.720;9.094;2023-08-24T14:34:50;702.30;;;659.03;;
3591;SDS011;1810;48.720;9.094;2023-08-24T14:37:19;774.30;;;723.08;;
3591;SDS011;1810;48.720;9.094;2023-08-24T14:39:48;704.75;;;660.55;;
3591;SDS011;1810;48.720;9.094;2023-08-24T14:42:17;711.90;;;667.08;;
3591;SDS011;1810;48.720;9.094;2023-08-24T14:44:45;711.58;;;666.53;;
3591;SDS011;1810;48.720;9.094;2023-08-24T14:47:14;731.78;;;684.95;;
3591;SDS011;1810;48.720;9.094;2023-08-24T14:49:43;738.08;;;690.35;;
3591;SDS011;1810;48.720;9.094;2023-08-24T14:52:12;688.28;;;646.20;;
3591;SDS011;1810;48.720;9.094;2023-08-24T14:54:41;703.72;;;659.67;;
3591;SDS011;1810;48.720;9.094;2023-08-24T14:57:11;759.10;;;709.60;;
3591;SDS011;1810;48.720;9.094;2023-08-24T14:59:40;777.00;;;726.15;;
3591;SDS011;1810;48.720;9.094;2023-08-24T15:02:09;692.35;;;650.53;;
3591;SDS011;1810;48.720;9.094;2023-08-24T15:04:37;653.20;;;614.90;;
3591;SDS011;1810;48.720;9.094;2023-08-24T15:07:06;586.72;;;553.58;;
3591;SDS011;1810;48.720;9.094;2023-08-24T15:09:35;534.67;;;504.20;;
3591;SDS011;1810;48.720;9.094;2023-08-24T15:12:04;376.13;;;357.02;;
3591;SDS011;1810;48.720;9.094;2023-08-24T15:14:34;329.60;;;313.90;;
3591;SDS011;1810;48.720;9.094;2023-08-24T15:17:03;295.25;;;280.73;;
3591;SDS011;1810;48.720;9.094;2023-08-24T15:19:32;312.75;;;295.85;;
3591;SDS011;1810;48.720;9.094;2023-08-24T15:22:01;281.48;;;263.83;;
3591;SDS011;1810;48.720;9.094;2023-08-24T15:24:36;195.80;;;183.63;;
3591;SDS011;1810;48.720;9.094;2023-08-24T15:27:04;128.02;;;121.60;;
3591;SDS011;1810;48.720;9.094;2023-08-24T15:29:34;122.85;;;114.90;;
3591;SDS011;1810;48.720;9.094;2023-08-24T15:32:05;110.60;;;105.13;;
3591;SDS011;1810;48.720;9.094;2023-08-24T15:34:33;165.52;;;158.07;;
3591;SDS011;1810;48.720;9.094;2023-08-24T15:37:02;229.45;;;218.43;;
3591;SDS011;1810;48.720;9.094;2023-08-24T15:39:32;240.98;;;230.32;;
3591;SDS011;1810;48.720;9.094;2023-08-24T15:42:04;274.23;;;261.55;;
3591;SDS011;1810;48.720;9.094;2023-08-24T15:44:34;261.80;;;250.27;;
3591;SDS011;1810;48.720;9.094;2023-08-24T15:47:03;335.70;;;320.65;;
3591;SDS011;1810;48.720;9.094;2023-08-24T15:49:33;317.02;;;302.35;;
3591;SDS011;1810;48.720;9.094;2023-08-24T15:52:02;313.35;;;299.48;;
3591;SDS011;1810;48.720;9.094;2023-08-24T15:54:31;364.27;;;347.10;;
3591;SDS011;1810;48.720;9.094;2023-08-24T15:56:59;288.60;;;275.50;;
3591;SDS011;1810;48.720;9.094;2023-08-24T15:59:28;299.45;;;285.92;;
3591;SDS011;1810;48.720;9.094;2023-08-24T16:01:57;265.50;;;253.63;;
3591;SDS011;1810;48.720;9.094;2023-08-24T16:04:26;256.55;;;245.27;;
3591;SDS011;1810;48.720;9.094;2023-08-24T16:06:55;315.00;;;300.45;;
3591;SDS011;1810;48.720;9.094;2023-08-24T16:09:24;335.17;;;319.63;;
3591;SDS011;1810;48.720;9.094;2023-08-24T16:11:53;352.83;;;336.67;;
3591;SDS011;1810;48.720;9.094;2023-08-24T16:14:22;359.15;;;342.60;;
3591;SDS011;1810;48.720;9.094;2023-08-24T16:16:50;384.85;;;366.50;;
3591;SDS011;1810;48.720;9.094;2023-08-24T16:19:22;591.28;;;558.92;;
3591;SDS011;1810;48.720;9.094;2023-08-24T16:21:50;602.33;;;569.38;;
3591;SDS011;1810;48.720;9.094;2023-08-24T16:24:19;594.67;;;562.72;;
3591;SDS011;1810;48.720;9.094;2023-08-24T16:26:47;626.38;;;591.20;;
3591;SDS011;1810;48.720;9.094;2023-08-24T16:29:16;625.22;;;590.35;;
3591;SDS011;1810;48.720;9.094;2023-08-24T16:31:46;617.50;;;583.40;;
3591;SDS011;1810;48.720;9.094;2023-08-24T16:34:14;643.20;;;605.95;;
3591;SDS011;1810;48.720;9.094;2023-08-24T16:36:44;608.25;;;573.90;;
3591;SDS011;1810;48.720;9.094;2023-08-24T16:39:12;600.08;;;567.42;;
3591;SDS011;1810;48.720;9.094;2023-08-24T16:41:41;605.25;;;572.30;;
3591;SDS011;1810;48.720;9.094;2023-08-24T16:44:09;594.40;;;561.92;;
3591;SDS011;1810;48.720;9.094;2023-08-24T16:46:38;644.58;;;606.17;;
3591;SDS011;1810;48.720;9.094;2023-08-24T16:49:07;634.35;;;598.33;;
3591;SDS011;1810;48.720;9.094;2023-08-24T16:51:36;658.67;;;619.80;;
3591;SDS011;1810;48.720;9.094;2023-08-24T16:54:06;620.33;;;585.17;;
3591;SDS011;1810;48.720;9.094;2023-08-24T16:56:34;622.05;;;586.92;;
3591;SDS011;1810;48.720;9.094;2023-08-24T16:59:03;629.67;;;594.05;;
3591;SDS011;1810;48.720;9.094;2023-08-24T17:01:38;639.28;;;602.65;;
3591;SDS011;1810;48.720;9.094;2023-08-24T17:08:02;618.40;;;583.22;;
3591;SDS011;1810;48.720;9.094;2023-08-24T17:10:37;605.40;;;571.90;;
3591;SDS011;1810;48.720;9.094;2023-08-24T17:13:08;597.47;;;564.97;;
3591;SDS011;1810;48.720;9.094;2023-08-24T17:15:36;598.15;;;565.28;;
3591;SDS011;1810;48.720;9.094;2023-08-24T17:18:05;609.10;;;575.47;;
3591;SDS011;1810;48.720;9.094;2023-08-24T17:20:35;591.53;;;559.33;;
3591;SDS011;1810;48.720;9.094;2023-08-24T17:23:04;593.00;;;560.30;;
3591;SDS011;1810;48.720;9.094;2023-08-24T17:25:33;586.22;;;554.50;;
3591;SDS011;1810;48.720;9.094;2023-08-24T17:28:04;588.08;;;556.05;;
3591;SDS011;1810;48.720;9.094;2023-08-24T17:30:33;593.78;;;561.72;;
3591;SDS011;1810;48.720;9.094;2023-08-24T17:33:05;597.05;;;564.30;;
3591;SDS011;1810;48.720;9.094;2023-08-24T17:35:36;589.70;;;557.90;;
3591;SDS011;1810;48.720;9.094;2023-08-24T17:38:19;623.42;;;587.72;;
3591;SDS011;1810;48.720;9.094;2023-08-24T17:40:55;608.25;;;574.97;;
3591;SDS011;1810;48.720;9.094;2023-08-24T17:43:29;605.30;;;571.63;;
3591;SDS011;1810;48.720;9.094;2023-08-24T17:45:59;654.08;;;615.40;;
3591;SDS011;1810;48.720;9.094;2023-08-24T17:48:29;613.85;;;579.78;;
3591;SDS011;1810;48.720;9.094;2023-08-24T17:50:59;588.28;;;556.67;;
3591;SDS011;1810;48.720;9.094;2023-08-24T17:53:32;598.42;;;565.50;;
3591;SDS011;1810;48.720;9.094;2023-08-24T17:56:01;595.15;;;562.78;;
3591;SDS011;1810;48.720;9.094;2023-08-24T17:58:32;644.30;;;607.10;;
3591;SDS011;1810;48.720;9.094;2023-08-24T18:01:01;601.92;;;568.70;;
3591;SDS011;1810;48.720;9.094;2023-08-24T18:03:30;591.97;;;559.78;;
3591;SDS011;1810;48.720;9.094;2023-08-24T18:05:59;605.92;;;572.55;;
3591;SDS011;1810;48.720;9.094;2023-08-24T18:08:30;604.13;;;570.45;;
3591;SDS011;1810;48.720;9.094;2023-08-24T18:11:16;609.70;;;576.17;;
3591;SDS011;1810;48.720;9.094;2023-08-24T18:13:46;592.00;;;559.63;;
3591;SDS011;1810;48.720;9.094;2023-08-24T18:16:15;598.03;;;565.45;;
3591;SDS011;1810;48.720;9.094;2023-08-24T18:18:44;600.33;;;567.30;;
3591;SDS011;1810;48.720;9.094;2023-08-24T18:21:13;590.97;;;558.85;;
3591;SDS011;1810;48.720;9.094;2023-08-24T18:23:42;590.65;;;558.95;;
3591;SDS011;1810;48.720;9.094;2023-08-24T18:26:11;458.85;;;435.63;;
3591;SDS011;1810;48.720;9.094;2023-08-24T18:28:40;362.05;;;345.10;;
3591;SDS011;1810;48.720;9.094;2023-08-24T18:31:13;254.13;;;242.70;;
3591;SDS011;1810;48.720;9.094;2023-08-24T18:33:45;218.00;;;207.38;;
3591;SDS011;1810;48.720;9.094;2023-08-24T18:36:14;119.35;;;113.75;;
3591;SDS011;1810;48.720;9.094;2023-08-24T18:38:43;66.80;;;63.40;;
3591;SDS011;1810;48.720;9.094;2023-08-24T18:41:20;58.75;;;55.72;;
3591;SDS011;1810;48.720;9.094;2023-08-24T18:43:49;65.13;;;61.63;;
3591;SDS011;1810;48.720;9.094;2023-08-24T18:46:19;34.55;;;32.40;;
3591;SDS011;1810;48.720;9.094;2023-08-24T18:48:48;35.47;;;33.13;;
3591;SDS011;1810;48.720;9.094;2023-08-24T18:51:23;40.63;;;38.05;;
3591;SDS011;1810;48.720;9.094;2023-08-24T18:53:53;30.33;;;28.48;;
3591;SDS011;1810;48.720;9.094;2023-08-24T18:56:21;43.17;;;40.30;;
3591;SDS011;1810;48.720;9.094;2023-08-24T18:58:50;38.95;;;36.40;;
3591;SDS011;1810;48.720;9.094;2023-08-24T19:01:21;30.75;;;29.00;;
3591;SDS011;1810;48.720;9.094;2023-08-24T19:03:51;38.75;;;36.38;;
3591;SDS011;1810;48.720;9.094;2023-08-24T19:06:20;49.47;;;46.38;;
3591;SDS011;1810;48.720;9.094;2023-08-24T19:08:56;66.63;;;61.50;;
3591;SDS011;1810;48.720;9.094;2023-08-24T19:11:36;56.28;;;51.83;;
3591;SDS011;1810;48.720;9.094;2023-08-24T19:14:08;35.00;;;32.55;;
3591;SDS011;1810;48.720;9.094;2023-08-24T19:16:38;33.38;;;30.92;;
3591;SDS011;1810;48.720;9.094;2023-08-24T19:19:07;36.38;;;33.80;;
3591;SDS011;1810;48.720;9.094;2023-08-24T19:21:42;35.13;;;32.70;;
3591;SDS011;1810;48.720;9.094;2023-08-24T19:24:14;34.50;;;32.13;;
3591;SDS011;1810;48.720;9.094;2023-08-24T19:26:59;42.80;;;39.63;;
3591;SDS011;1810;48.720;9.094;2023-08-24T19:29:34;43.45;;;40.17;;
3591;SDS011;1810;48.720;9.094;2023-08-24T19:32:12;48.25;;;44.90;;
3591;SDS011;1810;48.720;9.094;2023-08-24T19:34:52;55.65;;;51.95;;
3591;SDS011;1810;48.720;9.094;2023-08-24T19:37:31;52.35;;;49.00;;
3591;SDS011;1810;48.720;9.094;2023-08-24T19:40:06;55.75;;;51.70;;
3591;SDS011;1810;48.720;9.094;2023-08-24T19:42:39;62.55;;;58.80;;
3591;SDS011;1810;48.720;9.094;2023-08-24T19:45:16;70.20;;;66.25;;
3591;SDS011;1810;48.720;9.094;2023-08-24T19:47:52;72.65;;;68.45;;
3591;SDS011;1810;48.720;9.094;2023-08-24T19:50:29;79.70;;;75.40;;
3591;SDS011;1810;48.720;9.094;2023-08-24T19:53:06;98.45;;;93.22;;
3591;SDS011;1810;48.720;9.094;2023-08-24T19:55:42;84.88;;;80.15;;
3591;SDS011;1810;48.720;9.094;2023-08-24T19:58:14;87.13;;;82.13;;
3591;SDS011;1810;48.720;9.094;2023-08-24T20:00:45;154.45;;;147.00;;
3591;SDS011;1810;48.720;9.094;2023-08-24T20:03:24;110.88;;;105.30;;
3591;SDS011;1810;48.720;9.094;2023-08-24T20:05:58;109.88;;;104.28;;
3591;SDS011;1810;48.720;9.094;2023-08-24T20:08:33;107.65;;;101.80;;
3591;SDS011;1810;48.720;9.094;2023-08-24T20:11:05;129.05;;;122.25;;
3591;SDS011;1810;48.720;9.094;2023-08-24T20:13:39;140.82;;;133.98;;
3591;SDS011;1810;48.720;9.094;2023-08-24T20:16:11;182.30;;;173.70;;
3591;SDS011;1810;48.720;9.094;2023-08-24T20:18:42;144.05;;;137.13;;
3591;SDS011;1810;48.720;9.094;2023-08-24T20:21:15;133.45;;;126.40;;
3591;SDS011;1810;48.720;9.094;2023-08-24T20:26:24;154.15;;;146.52;;
3591;SDS011;1810;48.720;9.094;2023-08-24T20:28:53;161.38;;;153.88;;
3591;SDS011;1810;48.720;9.094;2023-08-24T20:31:26;160.93;;;153.38;;
3591;SDS011;1810;48.720;9.094;2023-08-24T20:34:01;161.55;;;153.73;;
3591;SDS011;1810;48.720;9.094;2023-08-24T20:36:37;152.23;;;144.90;;
3591;SDS011;1810;48.720;9.094;2023-08-24T20:39:15;160.15;;;152.57;;
3591;SDS011;1810;48.720;9.094;2023-08-24T20:44:49;167.63;;;159.75;;
3591;SDS011;1810;48.720;9.094;2023-08-24T20:47:18;154.15;;;146.93;;
3591;SDS011;1810;48.720;9.094;2023-08-24T20:49:52;163.10;;;155.30;;
3591;SDS011;1810;48.720;9.094;2023-08-24T20:52:27;154.48;;;147.30;;
3591;SDS011;1810;48.720;9.094;2023-08-24T20:54:56;176.30;;;167.50;;
3591;SDS011;1810;48.720;9.094;2023-08-24T20:57:56;170.10;;;161.98;;
3591;SDS011;1810;48.720;9.094;2023-08-24T21:00:37;170.30;;;162.20;;
3591;SDS011;1810;48.720;9.094;2023-08-24T21:03:24;170.23;;;161.90;;
3591;SDS011;1810;48.720;9.094;2023-08-24T21:06:15;171.40;;;163.57;;
3591;SDS011;1810;48.720;9.094;2023-08-24T21:08:56;175.50;;;167.30;;
3591;SDS011;1810;48.720;9.094;2023-08-24T21:11:34;192.23;;;183.57;;
3591;SDS011;1810;48.720;9.094;2023-08-24T21:14:11;163.32;;;155.50;;
3591;SDS011;1810;48.720;9.094;2023-08-24T21:17:01;172.88;;;165.10;;
3591;SDS011;1810;48.720;9.094;2023-08-24T21:19:50;167.45;;;159.48;;
3591;SDS011;1810;48.720;9.094;2023-08-24T21:22:46;168.70;;;161.00;;
3591;SDS011;1810;48.720;9.094;2023-08-24T21:25:26;175.02;;;166.88;;
3591;SDS011;1810;48.720;9.094;2023-08-24T21:28:04;165.73;;;158.07;;
3591;SDS011;1810;48.720;9.094;2023-08-24T21:30:38;170.68;;;162.93;;
3591;SDS011;1810;48.720;9.094;2023-08-24T21:33:28;176.55;;;167.90;;
3591;SDS011;1810;48.720;9.094;2023-08-24T21:36:18;165.63;;;158.05;;
3591;SDS011;1810;48.720;9.094;2023-08-24T21:38:56;166.15;;;158.50;;
3591;SDS011;1810;48.720;9.094;2023-08-24T21:41:33;169.40;;;161.32;;
3591;SDS011;1810;48.720;9.094;2023-08-24T21:44:27;193.77;;;184.82;;
3591;SDS011;1810;48.720;9.094;2023-08-24T21:50:52;207.07;;;197.68;;
3591;SDS011;1810;48.720;9.094;2023-08-24T21:53:32;174.27;;;165.95;;
3591;SDS011;1810;48.720;9.094;2023-08-24T21:56:20;168.88;;;161.07;;
3591;SDS011;1810;48.720;9.094;2023-08-24T22:04:57;182.98;;;174.25;;
3591;SDS011;1810;48.720;9.094;2023-08-24T22:07:32;201.98;;;192.82;;
3591;SDS011;1810;48.720;9.094;2023-08-24T22:10:19;192.68;;;183.68;;
3591;SDS011;1810;48.720;9.094;2023-08-24T22:13:32;172.50;;;164.32;;
3591;SDS011;1810;48.720;9.094;2023-08-24T22:16:24;198.00;;;188.75;;
3591;SDS011;1810;48.720;9.094;2023-08-24T22:19:30;196.38;;;187.10;;
3591;SDS011;1810;48.720;9.094;2023-08-24T22:22:30;245.48;;;234.48;;
3591;SDS011;1810;48.720;9.094;2023-08-24T22:25:13;313.75;;;299.65;;
3591;SDS011;1810;48.720;9.094;2023-08-24T22:38:42;269.17;;;257.08;;
3591;SDS011;1810;48.720;9.094;2023-08-24T22:41:25;310.58;;;296.85;;
3591;SDS011;1810;48.720;9.094;2023-08-24T22:44:32;352.60;;;336.67;;
3591;SDS011;1810;48.720;9.094;2023-08-24T22:47:32;324.98;;;310.33;;
3591;SDS011;1810;48.720;9.094;2023-08-24T22:50:31;338.42;;;323.02;;
3591;SDS011;1810;48.720;9.094;2023-08-24T22:53:45;323.85;;;309.45;;
3591;SDS011;1810;48.720;9.094;2023-08-24T22:56:30;321.60;;;307.20;;
3591;SDS011;1810;48.720;9.094;2023-08-24T22:59:18;325.65;;;311.05;;
3591;SDS011;1810;48.720;9.094;2023-08-24T23:02:04;334.67;;;319.48;;
3591;SDS011;1810;48.720;9.094;2023-08-24T23:04:42;287.75;;;274.80;;
3591;SDS011;1810;48.720;9.094;2023-08-24T23:07:32;321.60;;;307.10;;
3591;SDS011;1810;48.720;9.094;2023-08-24T23:10:19;351.48;;;335.55;;
3591;SDS011;1810;48.720;9.094;2023-08-24T23:13:09;320.90;;;306.58;;
3591;SDS011;1810;48.720;9.094;2023-08-24T23:15:41;382.83;;;365.00;;
3591;SDS011;1810;48.720;9.094;2023-08-24T23:18:26;429.35;;;408.95;;
3591;SDS011;1810;48.720;9.094;2023-08-24T23:21:11;441.85;;;420.88;;
3591;SDS011;1810;48.720;9.094;2023-08-24T23:23:55;431.63;;;411.15;;
3591;SDS011;1810;48.720;9.094;2023-08-24T23:30:15;406.88;;;387.77;;
3591;SDS011;1810;48.720;9.094;2023-08-24T23:33:20;363.45;;;346.83;;
3591;SDS011;1810;48.720;9.094;2023-08-24T23:36:31;375.17;;;357.80;;
3591;SDS011;1810;48.720;9.094;2023-08-24T23:39:21;376.63;;;359.15;;
3591;SDS011;1810;48.720;9.094;2023-08-24T23:45:27;404.15;;;385.15;;
3591;SDS011;1810;48.720;9.094;2023-08-24T23:48:18;415.33;;;395.23;;
3591;SDS011;1810;48.720;9.094;2023-08-24T23:51:21;400.17;;;381.00;;
3591;SDS011;1810;48.720;9.094;2023-08-24T23:54:30;431.15;;;410.58;;
3591;SDS011;1810;48.720;9.094;2023-08-24T23:57:29;454.70;;;432.75;;
